RDBUL67 KPIH-
Flight info
| Callsign | RDBUL67 |
|---|---|
| Flight time | N/A |
| Altitude | VFR |
| Route | //PATTERN// |
| Aircraft |
Departure
| Time | 2026-04-23 01:27 |
|---|---|
| Airport | Pocatello Regional Airport (KPIH) |
Arrival
| Time | N/A |
|---|---|
| Airport | - |
| Time | Latitude | Longitude | Altitude | Speed | Heading |
|---|---|---|---|---|---|
| 2026-04-23 01:23 | 42.91628 | -112.57708 | 4451 ft | 0 kts | 314° |
| 2026-04-23 01:24 | 42.91638 | -112.57684 | 4451 ft | 0 kts | 118° |
| 2026-04-23 01:24 | 42.91635 | -112.57675 | 4451 ft | 9 kts | 78° |
| 2026-04-23 01:24 | 42.91645 | -112.57685 | 4451 ft | 5 kts | 260° |
| 2026-04-23 01:25 | 42.91767 | -112.57662 | 4452 ft | 22 kts | 349° |
| 2026-04-23 01:25 | 42.91779 | -112.57666 | 4452 ft | 0 kts | 269° |
| 2026-04-23 01:25 | 42.91788 | -112.57697 | 4452 ft | 11 kts | 310° |
| 2026-04-23 01:26 | 42.91822 | -112.57813 | 4453 ft | 16 kts | 252° |
| 2026-04-23 01:26 | 42.91501 | -112.58290 | 4549 ft | 122 kts | 230° |
| 2026-04-23 01:26 | 42.90847 | -112.59104 | 4800 ft | 101 kts | 200° |
| 2026-04-23 01:26 | 42.90091 | -112.59852 | 4666 ft | 166 kts | 244° |
| 2026-04-23 01:27 | 42.89834 | -112.61355 | 5179 ft | 148 kts | 277° |
| 2026-04-23 01:27 | 42.90613 | -112.61258 | 6721 ft | 160 kts | 40° |
| 2026-04-23 01:27 | 42.91353 | -112.60191 | 6253 ft | 181 kts | 57° |
| 2026-04-23 01:27 | 42.92082 | -112.58371 | 4735 ft | 260 kts | 65° |
| 2026-04-23 01:28 | 42.91719 | -112.57580 | 5871 ft | 151 kts | 249° |
| 2026-04-23 01:28 | 42.91610 | -112.58441 | 7588 ft | 80 kts | 274° |
| 2026-04-23 01:28 | 42.91699 | -112.59162 | 8466 ft | 64 kts | 298° |
| 2026-04-23 01:28 | 42.91582 | -112.58930 | 6072 ft | 144 kts | 153° |
| 2026-04-23 01:29 | 42.90640 | -112.58873 | 5378 ft | 165 kts | 233° |
| 2026-04-23 01:29 | 42.90283 | -112.60138 | 6500 ft | 84 kts | 237° |
| 2026-04-23 01:29 | 42.90087 | -112.60804 | 7863 ft | 56 kts | 262° |
| 2026-04-23 01:29 | 42.90011 | -112.61376 | 8887 ft | 65 kts | 265° |
| 2026-04-23 01:30 | 42.90520 | -112.61981 | 8851 ft | 167 kts | 345° |
| 2026-04-23 01:30 | 42.91639 | -112.61670 | 9917 ft | 137 kts | 359° |
| 2026-04-23 01:30 | 42.92462 | -112.61336 | 10974 ft | 116 kts | 358° |
| 2026-04-23 01:30 | 42.93183 | -112.60857 | 11657 ft | 144 kts | 25° |
| 2026-04-23 01:31 | 42.93829 | -112.59360 | 11498 ft | 215 kts | 75° |
| 2026-04-23 01:31 | 42.93697 | -112.57264 | 10850 ft | 143 kts | 134° |
| 2026-04-23 01:31 | 42.93242 | -112.56109 | 7793 ft | 180 kts | 144° |
| 2026-04-23 01:31 | 42.92392 | -112.56656 | 5539 ft | 158 kts | 244° |
| 2026-04-23 01:32 | 42.91813 | -112.57873 | 4463 ft | 120 kts | 228° |
| 2026-04-23 01:32 | 42.91437 | -112.58434 | 4580 ft | 99 kts | 236° |
| 2026-04-23 01:32 | 42.91009 | -112.59046 | 5022 ft | 72 kts | 221° |
| 2026-04-23 01:32 | 42.90360 | -112.59861 | 4913 ft | 157 kts | 233° |
| 2026-04-23 01:33 | 42.90300 | -112.61175 | 5728 ft | 166 kts | 308° |
| 2026-04-23 01:33 | 42.91243 | -112.61962 | 5229 ft | 194 kts | 341° |
| 2026-04-23 01:33 | 42.92708 | -112.61580 | 5210 ft | 200 kts | 355° |
| 2026-04-23 01:33 | 42.93710 | -112.61850 | 5314 ft | 106 kts | 330° |
| 2026-04-23 01:34 | 42.94330 | -112.62128 | 4910 ft | 105 kts | 326° |
| 2026-04-23 01:34 | 42.94917 | -112.62479 | 4654 ft | 88 kts | 316° |
| 2026-04-23 01:34 | 42.95406 | -112.62935 | 4553 ft | 89 kts | 278° |
| 2026-04-23 01:34 | 42.94736 | -112.63301 | 4952 ft | 169 kts | 167° |
| 2026-04-23 01:35 | 42.93749 | -112.62099 | 5248 ft | 211 kts | 142° |
| 2026-04-23 01:35 | 42.92699 | -112.60751 | 4926 ft | 171 kts | 159° |
| 2026-04-23 01:35 | 42.91951 | -112.60463 | 4497 ft | 65 kts | 196° |
| 2026-04-23 01:35 | 42.91535 | -112.60535 | 4555 ft | 98 kts | 193° |
| 2026-04-23 01:36 | 42.90676 | -112.60462 | 4708 ft | 120 kts | 185° |
| 2026-04-23 01:36 | 42.90309 | -112.59846 | 4483 ft | 86 kts | 351° |
| 2026-04-23 01:36 | 42.90570 | -112.59812 | 4719 ft | 101 kts | 20° |
| 2026-04-23 01:36 | 42.91256 | -112.58794 | 4674 ft | 181 kts | 49° |
| 2026-04-23 01:37 | 42.92187 | -112.57354 | 4840 ft | 222 kts | 50° |
| 2026-04-23 01:37 | 42.93122 | -112.55481 | 4724 ft | 244 kts | 85° |
| 2026-04-23 01:37 | 42.91984 | -112.55668 | 5068 ft | 185 kts | 222° |
| 2026-04-23 01:37 | 42.91668 | -112.56947 | 4911 ft | 128 kts | 276° |
| 2026-04-23 01:38 | 42.91553 | -112.57866 | 4511 ft | 84 kts | 232° |
| 2026-04-23 01:38 | 42.91281 | -112.58244 | 4507 ft | 61 kts | 240° |
| 2026-04-23 01:38 | 42.90727 | -112.58750 | 4867 ft | 43 kts | 292° |